sensor_id;sensor_type;location;lat;lon;timestamp;pressure;altitude;pressure_sealevel;temperature;humidity
24306;BME280;12423;48.768;8.850;2023-10-19T00:02:14;95391.09;;;11.80;100.00
24306;BME280;12423;48.768;8.850;2023-10-19T00:04:45;95395.63;;;11.80;100.00
24306;BME280;12423;48.768;8.850;2023-10-19T00:07:13;95389.06;;;11.83;100.00
24306;BME280;12423;48.768;8.850;2023-10-19T00:09:43;95390.94;;;11.82;100.00
24306;BME280;12423;48.768;8.850;2023-10-19T00:12:12;95397.28;;;11.81;100.00
24306;BME280;12423;48.768;8.850;2023-10-19T00:14:42;95390.75;;;11.84;100.00
24306;BME280;12423;48.768;8.850;2023-10-19T00:17:10;95398.13;;;11.82;100.00
24306;BME280;12423;48.768;8.850;2023-10-19T00:19:38;95406.44;;;11.87;100.00
24306;BME280;12423;48.768;8.850;2023-10-19T00:22:23;95407.91;;;11.89;100.00
24306;BME280;12423;48.768;8.850;2023-10-19T00:24:50;95384.88;;;11.88;100.00
24306;BME280;12423;48.768;8.850;2023-10-19T00:27:18;95386.50;;;11.89;100.00
24306;BME280;12423;48.768;8.850;2023-10-19T00:29:50;95374.00;;;11.90;100.00
24306;BME280;12423;48.768;8.850;2023-10-19T00:32:32;95375.81;;;11.89;100.00
24306;BME280;12423;48.768;8.850;2023-10-19T00:35:05;95365.81;;;11.91;100.00
24306;BME280;12423;48.768;8.850;2023-10-19T00:37:47;95367.09;;;11.95;100.00
24306;BME280;12423;48.768;8.850;2023-10-19T00:40:15;95365.41;;;11.94;100.00
24306;BME280;12423;48.768;8.850;2023-10-19T00:43:02;95364.06;;;11.98;100.00
24306;BME280;12423;48.768;8.850;2023-10-19T00:45:33;95359.72;;;11.97;100.00
24306;BME280;12423;48.768;8.850;2023-10-19T00:48:06;95364.69;;;12.01;100.00
24306;BME280;12423;48.768;8.850;2023-10-19T00:50:35;95366.56;;;12.00;100.00
24306;BME280;12423;48.768;8.850;2023-10-19T00:53:03;95361.03;;;12.02;100.00
24306;BME280;12423;48.768;8.850;2023-10-19T00:55:34;95356.69;;;12.01;100.00
24306;BME280;12423;48.768;8.850;2023-10-19T00:58:02;95355.03;;;12.00;100.00
24306;BME280;12423;48.768;8.850;2023-10-19T01:00:37;95355.03;;;12.00;100.00
24306;BME280;12423;48.768;8.850;2023-10-19T01:03:10;95357.31;;;12.03;100.00
24306;BME280;12423;48.768;8.850;2023-10-19T01:05:40;95354.00;;;12.01;100.00
24306;BME280;12423;48.768;8.850;2023-10-19T01:08:14;95352.81;;;12.03;100.00
24306;BME280;12423;48.768;8.850;2023-10-19T01:10:50;95343.31;;;12.01;100.00
24306;BME280;12423;48.768;8.850;2023-10-19T01:13:19;95349.69;;;12.00;100.00
24306;BME280;12423;48.768;8.850;2023-10-19T01:15:55;95338.59;;;12.03;100.00
24306;BME280;12423;48.768;8.850;2023-10-19T01:18:25;95339.63;;;12.02;100.00
24306;BME280;12423;48.768;8.850;2023-10-19T01:20:55;95332.88;;;12.06;100.00
24306;BME280;12423;48.768;8.850;2023-10-19T01:23:25;95339.91;;;12.07;100.00
24306;BME280;12423;48.768;8.850;2023-10-19T01:25:56;95337.88;;;12.09;100.00
24306;BME280;12423;48.768;8.850;2023-10-19T01:28:30;95326.78;;;12.12;100.00
24306;BME280;12423;48.768;8.850;2023-10-19T01:31:10;95328.66;;;12.11;100.00
24306;BME280;12423;48.768;8.850;2023-10-19T01:33:42;95329.47;;;12.12;100.00
24306;BME280;12423;48.768;8.850;2023-10-19T01:36:10;95314.72;;;12.16;100.00
24306;BME280;12423;48.768;8.850;2023-10-19T01:38:39;95314.72;;;12.16;100.00
24306;BME280;12423;48.768;8.850;2023-10-19T01:41:08;95313.06;;;12.15;100.00
24306;BME280;12423;48.768;8.850;2023-10-19T01:43:41;95316.72;;;12.14;100.00
24306;BME280;12423;48.768;8.850;2023-10-19T01:46:09;95309.56;;;12.14;100.00
24306;BME280;12423;48.768;8.850;2023-10-19T01:48:40;95311.38;;;12.14;100.00
24306;BME280;12423;48.768;8.850;2023-10-19T01:51:07;95310.56;;;12.13;100.00
24306;BME280;12423;48.768;8.850;2023-10-19T01:53:38;95299.41;;;12.10;100.00
24306;BME280;12423;48.768;8.850;2023-10-19T01:56:07;95316.28;;;12.10;100.00
24306;BME280;12423;48.768;8.850;2023-10-19T01:58:37;95298.38;;;12.11;100.00
24306;BME280;12423;48.768;8.850;2023-10-19T02:01:04;95299.41;;;12.10;100.00
24306;BME280;12423;48.768;8.850;2023-10-19T02:03:35;95295.03;;;12.09;100.00
24306;BME280;12423;48.768;8.850;2023-10-19T02:06:02;95298.56;;;12.09;100.00
24306;BME280;12423;48.768;8.850;2023-10-19T02:08:48;95302.25;;;12.08;100.00
24306;BME280;12423;48.768;8.850;2023-10-19T02:11:20;95298.75;;;12.08;100.00
24306;BME280;12423;48.768;8.850;2023-10-19T02:13:48;95294.41;;;12.07;100.00
24306;BME280;12423;48.768;8.850;2023-10-19T02:16:16;95296.81;;;12.02;100.00
24306;BME280;12423;48.768;8.850;2023-10-19T02:18:47;95289.78;;;12.01;100.00
24306;BME280;12423;48.768;8.850;2023-10-19T02:21:14;95278.63;;;11.97;100.00
24306;BME280;12423;48.768;8.850;2023-10-19T02:23:48;95276.13;;;11.95;100.00
24306;BME280;12423;48.768;8.850;2023-10-19T02:26:17;95275.13;;;11.96;100.00
24306;BME280;12423;48.768;8.850;2023-10-19T02:28:45;95268.28;;;11.94;100.00
24306;BME280;12423;48.768;8.850;2023-10-19T02:31:12;95276.50;;;11.92;100.00
24306;BME280;12423;48.768;8.850;2023-10-19T02:33:42;95271.47;;;11.89;100.00
24306;BME280;12423;48.768;8.850;2023-10-19T02:36:13;95265.84;;;11.84;100.00
24306;BME280;12423;48.768;8.850;2023-10-19T02:38:42;95270.56;;;11.82;100.00
24306;BME280;12423;48.768;8.850;2023-10-19T02:41:15;95262.25;;;11.77;100.00
24306;BME280;12423;48.768;8.850;2023-10-19T02:43:42;95272.13;;;11.76;100.00
24306;BME280;12423;48.768;8.850;2023-10-19T02:46:13;95271.63;;;11.73;100.00
24306;BME280;12423;48.768;8.850;2023-10-19T02:48:40;95257.16;;;11.67;100.00
24306;BME280;12423;48.768;8.850;2023-10-19T02:51:11;95261.19;;;11.63;100.00
24306;BME280;12423;48.768;8.850;2023-10-19T02:53:38;95247.19;;;11.61;100.00
24306;BME280;12423;48.768;8.850;2023-10-19T02:56:10;95252.72;;;11.59;100.00
24306;BME280;12423;48.768;8.850;2023-10-19T02:58:37;95245.91;;;11.57;100.00
24306;BME280;12423;48.768;8.850;2023-10-19T03:01:13;95242.94;;;11.52;100.00
24306;BME280;12423;48.768;8.850;2023-10-19T03:03:43;95242.28;;;11.50;100.00
24306;BME280;12423;48.768;8.850;2023-10-19T03:06:12;95244.50;;;11.46;100.00
24306;BME280;12423;48.768;8.850;2023-10-19T03:08:39;95237.84;;;11.42;100.00
24306;BME280;12423;48.768;8.850;2023-10-19T03:11:06;95240.53;;;11.42;100.00
24306;BME280;12423;48.768;8.850;2023-10-19T03:13:33;95231.03;;;11.39;100.00
24306;BME280;12423;48.768;8.850;2023-10-19T03:16:01;95238.41;;;11.37;100.00
24306;BME280;12423;48.768;8.850;2023-10-19T03:18:35;95233.88;;;11.38;100.00
24306;BME280;12423;48.768;8.850;2023-10-19T03:21:03;95224.22;;;11.37;100.00
24306;BME280;12423;48.768;8.850;2023-10-19T03:23:30;95220.22;;;11.33;100.00
24306;BME280;12423;48.768;8.850;2023-10-19T03:26:00;95229.44;;;11.30;100.00
24306;BME280;12423;48.768;8.850;2023-10-19T03:28:45;95226.97;;;11.29;100.00
24306;BME280;12423;48.768;8.850;2023-10-19T03:31:15;95229.25;;;11.32;100.00
24306;BME280;12423;48.768;8.850;2023-10-19T03:33:46;95226.56;;;11.32;100.00
24306;BME280;12423;48.768;8.850;2023-10-19T03:36:20;95225.56;;;11.33;100.00
24306;BME280;12423;48.768;8.850;2023-10-19T03:38:48;95222.25;;;11.31;100.00
24306;BME280;12423;48.768;8.850;2023-10-19T03:41:17;95218.94;;;11.29;100.00
24306;BME280;12423;48.768;8.850;2023-10-19T03:43:48;95211.28;;;11.25;100.00
24306;BME280;12423;48.768;8.850;2023-10-19T03:46:18;95214.31;;;11.22;100.00
24306;BME280;12423;48.768;8.850;2023-10-19T03:48:57;95207.94;;;11.23;100.00
24306;BME280;12423;48.768;8.850;2023-10-19T03:51:30;95210.59;;;11.23;100.00
24306;BME280;12423;48.768;8.850;2023-10-19T03:54:06;95207.13;;;11.23;100.00
24306;BME280;12423;48.768;8.850;2023-10-19T03:56:48;95203.97;;;11.19;100.00
24306;BME280;12423;48.768;8.850;2023-10-19T03:59:16;95206.19;;;11.16;100.00
24306;BME280;12423;48.768;8.850;2023-10-19T04:01:44;95202.03;;;11.13;100.00
24306;BME280;12423;48.768;8.850;2023-10-19T04:04:13;95198.34;;;11.14;100.00
24306;BME280;12423;48.768;8.850;2023-10-19T04:06:42;95194.09;;;11.20;100.00
24306;BME280;12423;48.768;8.850;2023-10-19T04:09:13;95186.56;;;11.23;100.00
24306;BME280;12423;48.768;8.850;2023-10-19T04:11:44;95188.50;;;11.30;100.00
24306;BME280;12423;48.768;8.850;2023-10-19T04:14:18;95188.78;;;11.35;100.00
24306;BME280;12423;48.768;8.850;2023-10-19T04:16:47;95181.44;;;11.37;100.00
24306;BME280;12423;48.768;8.850;2023-10-19T04:19:17;95196.28;;;11.39;100.00
24306;BME280;12423;48.768;8.850;2023-10-19T04:21:45;95184.41;;;11.42;100.00
24306;BME280;12423;48.768;8.850;2023-10-19T04:24:13;95174.53;;;11.42;100.00
24306;BME280;12423;48.768;8.850;2023-10-19T04:26:41;95180.69;;;11.43;100.00
24306;BME280;12423;48.768;8.850;2023-10-19T04:29:09;95172.03;;;11.41;100.00
24306;BME280;12423;48.768;8.850;2023-10-19T04:31:38;95162.34;;;11.40;100.00
24306;BME280;12423;48.768;8.850;2023-10-19T04:34:15;95161.97;;;11.43;100.00
24306;BME280;12423;48.768;8.850;2023-10-19T04:36:48;95158.31;;;11.44;100.00
24306;BME280;12423;48.768;8.850;2023-10-19T04:39:15;95165.97;;;11.47;100.00
24306;BME280;12423;48.768;8.850;2023-10-19T04:41:45;95160.97;;;11.44;100.00
24306;BME280;12423;48.768;8.850;2023-10-19T04:44:15;95171.56;;;11.37;100.00
24306;BME280;12423;48.768;8.850;2023-10-19T04:46:42;95163.91;;;11.34;100.00
24306;BME280;12423;48.768;8.850;2023-10-19T04:49:10;95161.97;;;11.28;100.00
24306;BME280;12423;48.768;8.850;2023-10-19T04:51:38;95173.00;;;11.25;100.00
24306;BME280;12423;48.768;8.850;2023-10-19T04:54:07;95164.19;;;11.24;100.00
24306;BME280;12423;48.768;8.850;2023-10-19T04:56:35;95165.19;;;11.23;100.00
24306;BME280;12423;48.768;8.850;2023-10-19T04:59:03;95153.75;;;11.30;100.00
24306;BME280;12423;48.768;8.850;2023-10-19T05:01:31;95162.06;;;11.35;100.00
24306;BME280;12423;48.768;8.850;2023-10-19T05:04:00;95161.06;;;11.36;100.00
24306;BME280;12423;48.768;8.850;2023-10-19T05:06:27;95150.81;;;11.39;100.00
24306;BME280;12423;48.768;8.850;2023-10-19T05:08:55;95158.03;;;11.39;100.00
24306;BME280;12423;48.768;8.850;2023-10-19T05:11:24;95154.53;;;11.38;100.00
24306;BME280;12423;48.768;8.850;2023-10-19T05:13:52;95155.00;;;11.42;100.00
24306;BME280;12423;48.768;8.850;2023-10-19T05:16:20;95156.44;;;11.44;100.00
24306;BME280;12423;48.768;8.850;2023-10-19T05:18:47;95152.59;;;11.47;100.00
24306;BME280;12423;48.768;8.850;2023-10-19T05:21:15;95159.47;;;11.41;100.00
24306;BME280;12423;48.768;8.850;2023-10-19T05:23:42;95154.47;;;11.23;100.00
24306;BME280;12423;48.768;8.850;2023-10-19T05:26:10;95159.25;;;11.13;100.00
24306;BME280;12423;48.768;8.850;2023-10-19T05:28:40;95158.16;;;11.07;100.00
24306;BME280;12423;48.768;8.850;2023-10-19T05:31:09;95159.06;;;11.00;100.00
24306;BME280;12423;48.768;8.850;2023-10-19T05:33:38;95164.13;;;10.95;100.00
24306;BME280;12423;48.768;8.850;2023-10-19T05:36:06;95159.78;;;10.94;100.00
24306;BME280;12423;48.768;8.850;2023-10-19T05:38:34;95154.06;;;10.97;100.00
24306;BME280;12423;48.768;8.850;2023-10-19T05:41:01;95150.41;;;10.98;100.00
24306;BME280;12423;48.768;8.850;2023-10-19T05:43:29;95144.34;;;11.04;100.00
24306;BME280;12423;48.768;8.850;2023-10-19T05:45:58;95144.63;;;11.09;100.00
24306;BME280;12423;48.768;8.850;2023-10-19T05:48:26;95143.59;;;11.10;100.00
24306;BME280;12423;48.768;8.850;2023-10-19T05:50:54;95147.75;;;11.13;100.00
24306;BME280;12423;48.768;8.850;2023-10-19T05:53:21;95147.50;;;11.22;100.00
24306;BME280;12423;48.768;8.850;2023-10-19T05:55:49;95137.81;;;11.21;100.00
24306;BME280;12423;48.768;8.850;2023-10-19T05:58:17;95148.31;;;11.23;100.00
24306;BME280;12423;48.768;8.850;2023-10-19T06:00:44;95155.88;;;11.19;100.00
24306;BME280;12423;48.768;8.850;2023-10-19T06:03:13;95158.97;;;11.08;100.00
24306;BME280;12423;48.768;8.850;2023-10-19T06:05:41;95158.69;;;11.03;100.00
24306;BME280;12423;48.768;8.850;2023-10-19T06:08:09;95164.75;;;10.97;100.00
24306;BME280;12423;48.768;8.850;2023-10-19T06:10:37;95157.94;;;10.94;100.00
24306;BME280;12423;48.768;8.850;2023-10-19T06:13:05;95159.06;;;11.00;100.00
24306;BME280;12423;48.768;8.850;2023-10-19T06:15:36;95160.38;;;11.04;100.00
24306;BME280;12423;48.768;8.850;2023-10-19T06:18:04;95159.81;;;11.09;100.00
24306;BME280;12423;48.768;8.850;2023-10-19T06:20:33;95165.47;;;11.14;100.00
24306;BME280;12423;48.768;8.850;2023-10-19T06:23:02;95162.41;;;11.17;100.00
24306;BME280;12423;48.768;8.850;2023-10-19T06:25:32;95170.06;;;11.20;100.00
24306;BME280;12423;48.768;8.850;2023-10-19T06:28:01;95169.59;;;11.16;100.00
24306;BME280;12423;48.768;8.850;2023-10-19T06:30:29;95166.28;;;11.14;100.00
24306;BME280;12423;48.768;8.850;2023-10-19T06:32:57;95165.63;;;11.12;100.00
24306;BME280;12423;48.768;8.850;2023-10-19T06:35:27;95167.97;;;11.15;100.00
24306;BME280;12423;48.768;8.850;2023-10-19T06:37:59;95160.41;;;11.19;100.00
24306;BME280;12423;48.768;8.850;2023-10-19T06:40:27;95166.56;;;11.19;100.00
24306;BME280;12423;48.768;8.850;2023-10-19T06:42:55;95157.38;;;11.22;100.00
24306;BME280;12423;48.768;8.850;2023-10-19T06:45:23;95151.81;;;11.23;100.00
24306;BME280;12423;48.768;8.850;2023-10-19T06:47:51;95157.47;;;11.29;100.00
24306;BME280;12423;48.768;8.850;2023-10-19T06:50:20;95149.44;;;11.29;100.00
24306;BME280;12423;48.768;8.850;2023-10-19T06:52:48;95156.25;;;11.31;100.00
24306;BME280;12423;48.768;8.850;2023-10-19T06:55:17;95154.41;;;11.32;100.00
24306;BME280;12423;48.768;8.850;2023-10-19T06:57:46;95148.06;;;11.33;100.00
24306;BME280;12423;48.768;8.850;2023-10-19T07:00:15;95150.38;;;11.36;100.00
24306;BME280;12423;48.768;8.850;2023-10-19T07:02:46;95154.53;;;11.38;100.00
24306;BME280;12423;48.768;8.850;2023-10-19T07:05:13;95157.66;;;11.42;100.00
24306;BME280;12423;48.768;8.850;2023-10-19T07:07:44;95150.09;;;11.46;100.00
24306;BME280;12423;48.768;8.850;2023-10-19T07:10:12;95159.88;;;11.53;100.00
24306;BME280;12423;48.768;8.850;2023-10-19T07:12:42;95159.50;;;11.56;100.00
24306;BME280;12423;48.768;8.850;2023-10-19T07:15:10;95157.50;;;11.58;100.00
24306;BME280;12423;48.768;8.850;2023-10-19T07:17:40;95155.91;;;11.64;100.00
24306;BME280;12423;48.768;8.850;2023-10-19T07:20:08;95152.03;;;11.67;100.00
24306;BME280;12423;48.768;8.850;2023-10-19T07:22:48;95150.28;;;11.74;100.00
24306;BME280;12423;48.768;8.850;2023-10-19T07:25:16;95153.22;;;11.79;100.00
24306;BME280;12423;48.768;8.850;2023-10-19T07:27:49;95153.03;;;11.80;100.00
24306;BME280;12423;48.768;8.850;2023-10-19T07:30:18;95156.63;;;11.88;100.00
24306;BME280;12423;48.768;8.850;2023-10-19T07:32:48;95156.75;;;11.94;100.00
24306;BME280;12423;48.768;8.850;2023-10-19T07:35:20;95146.59;;;12.05;100.00
24306;BME280;12423;48.768;8.850;2023-10-19T07:37:49;95146.03;;;12.09;100.00
24306;BME280;12423;48.768;8.850;2023-10-19T07:40:16;95145.44;;;12.14;100.00
24306;BME280;12423;48.768;8.850;2023-10-19T07:42:44;95148.38;;;12.19;100.00
24306;BME280;12423;48.768;8.850;2023-10-19T07:45:14;95151.34;;;12.24;100.00
24306;BME280;12423;48.768;8.850;2023-10-19T07:47:44;95148.94;;;12.29;100.00
24306;BME280;12423;48.768;8.850;2023-10-19T07:50:13;95145.66;;;12.34;100.00
24306;BME280;12423;48.768;8.850;2023-10-19T07:52:43;95149.47;;;12.40;100.00
24306;BME280;12423;48.768;8.850;2023-10-19T07:55:11;95140.00;;;12.44;100.00
24306;BME280;12423;48.768;8.850;2023-10-19T07:57:39;95146.72;;;12.54;100.00
24306;BME280;12423;48.768;8.850;2023-10-19T08:00:07;95138.75;;;12.61;100.00
24306;BME280;12423;48.768;8.850;2023-10-19T08:02:37;95141.94;;;12.71;100.00
24306;BME280;12423;48.768;8.850;2023-10-19T08:05:07;95136.25;;;12.81;100.00
24306;BME280;12423;48.768;8.850;2023-10-19T08:07:34;95140.03;;;12.87;100.00
24306;BME280;12423;48.768;8.850;2023-10-19T08:10:03;95137.66;;;12.99;100.00
24306;BME280;12423;48.768;8.850;2023-10-19T08:12:31;95139.44;;;13.20;100.00
24306;BME280;12423;48.768;8.850;2023-10-19T08:15:00;95140.78;;;13.31;100.00
24306;BME280;12423;48.768;8.850;2023-10-19T08:17:28;95137.16;;;13.38;100.00
24306;BME280;12423;48.768;8.850;2023-10-19T08:19:57;95140.91;;;13.44;100.00
24306;BME280;12423;48.768;8.850;2023-10-19T08:22:28;95142.81;;;13.50;100.00
24306;BME280;12423;48.768;8.850;2023-10-19T08:24:56;95149.22;;;13.56;100.00
24306;BME280;12423;48.768;8.850;2023-10-19T08:27:24;95141.84;;;13.58;100.00
24306;BME280;12423;48.768;8.850;2023-10-19T08:29:52;95143.69;;;13.64;100.00
24306;BME280;12423;48.768;8.850;2023-10-19T08:32:19;95140.25;;;13.70;100.00
24306;BME280;12423;48.768;8.850;2023-10-19T08:34:47;95146.47;;;13.77;100.00
24306;BME280;12423;48.768;8.850;2023-10-19T08:37:16;95131.88;;;13.87;100.00
24306;BME280;12423;48.768;8.850;2023-10-19T08:39:43;95133.38;;;13.96;100.00
24306;BME280;12423;48.768;8.850;2023-10-19T08:42:11;95127.63;;;14.06;100.00
24306;BME280;12423;48.768;8.850;2023-10-19T08:44:38;95116.91;;;14.12;100.00
24306;BME280;12423;48.768;8.850;2023-10-19T08:47:07;95118.16;;;14.23;100.00
24306;BME280;12423;48.768;8.850;2023-10-19T08:49:35;95118.41;;;14.35;100.00
24306;BME280;12423;48.768;8.850;2023-10-19T08:52:03;95117.41;;;14.43;100.00
24306;BME280;12423;48.768;8.850;2023-10-19T08:54:32;95117.00;;;14.52;100.00
24306;BME280;12423;48.768;8.850;2023-10-19T08:57:00;95112.06;;;14.56;100.00
24306;BME280;12423;48.768;8.850;2023-10-19T08:59:28;95112.31;;;14.68;100.00
24306;BME280;12423;48.768;8.850;2023-10-19T09:02:00;95107.34;;;14.71;100.00
24306;BME280;12423;48.768;8.850;2023-10-19T09:04:29;95116.25;;;14.72;100.00
24306;BME280;12423;48.768;8.850;2023-10-19T09:06:57;95104.25;;;14.81;100.00
24306;BME280;12423;48.768;8.850;2023-10-19T09:09:24;95106.53;;;14.91;100.00
24306;BME280;12423;48.768;8.850;2023-10-19T09:12:00;95099.53;;;14.97;100.00
24306;BME280;12423;48.768;8.850;2023-10-19T09:14:33;95099.31;;;15.05;100.00
24306;BME280;12423;48.768;8.850;2023-10-19T09:17:02;95101.38;;;15.09;100.00
24306;BME280;12423;48.768;8.850;2023-10-19T09:19:35;95088.97;;;15.15;100.00
24306;BME280;12423;48.768;8.850;2023-10-19T09:22:03;95088.75;;;15.23;100.00
24306;BME280;12423;48.768;8.850;2023-10-19T09:24:34;95090.81;;;15.35;100.00
24306;BME280;12423;48.768;8.850;2023-10-19T09:27:04;95096.38;;;15.40;100.00
24306;BME280;12423;48.768;8.850;2023-10-19T09:29:31;95094.91;;;15.44;100.00
24306;BME280;12423;48.768;8.850;2023-10-19T09:31:59;95086.00;;;15.50;100.00
24306;BME280;12423;48.768;8.850;2023-10-19T09:34:29;95085.19;;;15.56;100.00
24306;BME280;12423;48.768;8.850;2023-10-19T09:36:59;95082.66;;;15.68;100.00
24306;BME280;12423;48.768;8.850;2023-10-19T09:39:28;95076.03;;;15.64;100.00
24306;BME280;12423;48.768;8.850;2023-10-19T09:42:01;95081.00;;;15.67;100.00
24306;BME280;12423;48.768;8.850;2023-10-19T09:44:34;95079.34;;;15.73;100.00
24306;BME280;12423;48.768;8.850;2023-10-19T09:47:07;95080.97;;;15.74;100.00
24306;BME280;12423;48.768;8.850;2023-10-19T09:49:39;95078.50;;;15.65;100.00
24306;BME280;12423;48.768;8.850;2023-10-19T09:52:06;95074.59;;;15.68;100.00
24306;BME280;12423;48.768;8.850;2023-10-19T09:54:39;95069.41;;;15.66;100.00
24306;BME280;12423;48.768;8.850;2023-10-19T09:57:12;95075.00;;;15.65;100.00
24306;BME280;12423;48.768;8.850;2023-10-19T09:59:45;95079.56;;;15.64;100.00
24306;BME280;12423;48.768;8.850;2023-10-19T10:02:15;95085.56;;;15.60;100.00
24306;BME280;12423;48.768;8.850;2023-10-19T10:04:44;95077.09;;;15.56;100.00
24306;BME280;12423;48.768;8.850;2023-10-19T10:07:13;95081.88;;;15.54;100.00
24306;BME280;12423;48.768;8.850;2023-10-19T10:09:51;95080.22;;;15.53;100.00
24306;BME280;12423;48.768;8.850;2023-10-19T10:12:19;95072.34;;;15.52;100.00
24306;BME280;12423;48.768;8.850;2023-10-19T10:14:53;95078.53;;;15.52;100.00
24306;BME280;12423;48.768;8.850;2023-10-19T10:17:22;95072.75;;;15.55;100.00
24306;BME280;12423;48.768;8.850;2023-10-19T10:19:53;95075.03;;;15.58;100.00
24306;BME280;12423;48.768;8.850;2023-10-19T10:22:21;95078.31;;;15.60;100.00
24306;BME280;12423;48.768;8.850;2023-10-19T10:24:54;95075.22;;;15.63;100.00
24306;BME280;12423;48.768;8.850;2023-10-19T10:27:22;95081.00;;;15.67;100.00
24306;BME280;12423;48.768;8.850;2023-10-19T10:29:58;95078.94;;;15.76;100.00
24306;BME280;12423;48.768;8.850;2023-10-19T10:38:06;95086.75;;;15.91;100.00
24306;BME280;12423;48.768;8.850;2023-10-19T10:40:41;95085.09;;;15.90;100.00
24306;BME280;12423;48.768;8.850;2023-10-19T10:43:09;95089.91;;;15.81;100.00
24306;BME280;12423;48.768;8.850;2023-10-19T10:45:38;95096.09;;;15.81;100.00
24306;BME280;12423;48.768;8.850;2023-10-19T10:48:10;95094.88;;;15.77;100.00
24306;BME280;12423;48.768;8.850;2023-10-19T10:50:38;95090.53;;;15.76;100.00
24306;BME280;12423;48.768;8.850;2023-10-19T10:53:05;95094.25;;;15.69;100.00
24306;BME280;12423;48.768;8.850;2023-10-19T10:55:33;95090.53;;;15.70;100.00
24306;BME280;12423;48.768;8.850;2023-10-19T10:58:01;95086.59;;;15.65;100.00
24306;BME280;12423;48.768;8.850;2023-10-19T11:00:29;95088.06;;;15.61;100.00
24306;BME280;12423;48.768;8.850;2023-10-19T11:03:01;95081.88;;;15.54;100.00
24306;BME280;12423;48.768;8.850;2023-10-19T11:05:30;95095.97;;;15.36;100.00
24306;BME280;12423;48.768;8.850;2023-10-19T11:08:03;95088.94;;;15.28;100.00
24306;BME280;12423;48.768;8.850;2023-10-19T11:10:31;95083.59;;;15.22;100.00
24306;BME280;12423;48.768;8.850;2023-10-19T11:13:02;95078.22;;;15.15;100.00
24306;BME280;12423;48.768;8.850;2023-10-19T11:15:30;95058.78;;;15.06;100.00
24306;BME280;12423;48.768;8.850;2023-10-19T11:17:57;95056.31;;;14.98;100.00
24306;BME280;12423;48.768;8.850;2023-10-19T11:20:26;95065.59;;;14.89;100.00
24306;BME280;12423;48.768;8.850;2023-10-19T11:22:55;95054.44;;;14.85;100.00
24306;BME280;12423;48.768;8.850;2023-10-19T11:25:24;95063.94;;;14.81;100.00
24306;BME280;12423;48.768;8.850;2023-10-19T11:27:54;95072.41;;;14.71;100.00
24306;BME280;12423;48.768;8.850;2023-10-19T11:30:22;95079.03;;;14.69;100.00
24306;BME280;12423;48.768;8.850;2023-10-19T11:32:50;95077.16;;;14.63;100.00
24306;BME280;12423;48.768;8.850;2023-10-19T11:35:19;95057.34;;;14.70;100.00
24306;BME280;12423;48.768;8.850;2023-10-19T11:37:49;95037.47;;;14.71;100.00
24306;BME280;12423;48.768;8.850;2023-10-19T11:40:16;95025.50;;;14.74;100.00
24306;BME280;12423;48.768;8.850;2023-10-19T11:42:45;95021.16;;;14.73;100.00
24306;BME280;12423;48.768;8.850;2023-10-19T11:45:13;95015.38;;;14.76;100.00
24306;BME280;12423;48.768;8.850;2023-10-19T11:47:40;95016.41;;;14.75;100.00
24306;BME280;12423;48.768;8.850;2023-10-19T11:50:08;95009.19;;;14.82;100.00
24306;BME280;12423;48.768;8.850;2023-10-19T11:52:38;95004.81;;;14.81;100.00
24306;BME280;12423;48.768;8.850;2023-10-19T11:55:07;95000.09;;;14.83;100.00
24306;BME280;12423;48.768;8.850;2023-10-19T11:57:35;95000.06;;;14.90;100.00
24306;BME280;12423;48.768;8.850;2023-10-19T12:00:03;94988.47;;;14.89;100.00
24306;BME280;12423;48.768;8.850;2023-10-19T12:02:35;94981.06;;;14.91;100.00
24306;BME280;12423;48.768;8.850;2023-10-19T12:05:04;94973.81;;;14.85;100.00
24306;BME280;12423;48.768;8.850;2023-10-19T12:07:36;94964.50;;;14.81;100.00
24306;BME280;12423;48.768;8.850;2023-10-19T12:10:04;94969.69;;;14.83;100.00
24306;BME280;12423;48.768;8.850;2023-10-19T12:12:33;94972.16;;;14.84;100.00
24306;BME280;12423;48.768;8.850;2023-10-19T12:15:15;94984.16;;;14.82;100.00
24306;BME280;12423;48.768;8.850;2023-10-19T12:17:43;94980.03;;;14.79;100.00
24306;BME280;12423;48.768;8.850;2023-10-19T12:20:11;94990.75;;;14.86;100.00
24306;BME280;12423;48.768;8.850;2023-10-19T12:22:40;94987.88;;;14.87;100.00
24306;BME280;12423;48.768;8.850;2023-10-19T12:25:08;94989.13;;;14.91;100.00
24306;BME280;12423;48.768;8.850;2023-10-19T12:27:38;94992.63;;;14.99;100.00
24306;BME280;12423;48.768;8.850;2023-10-19T12:30:06;94987.84;;;15.01;100.00
24306;BME280;12423;48.768;8.850;2023-10-19T12:32:43;94980.59;;;15.01;100.00
24306;BME280;12423;48.768;8.850;2023-10-19T12:35:10;94992.63;;;14.99;100.00
24306;BME280;12423;48.768;8.850;2023-10-19T12:37:39;94998.78;;;15.06;100.00
24306;BME280;12423;48.768;8.850;2023-10-19T12:40:12;95000.88;;;14.97;100.00
24306;BME280;12423;48.768;8.850;2023-10-19T12:42:54;94990.31;;;15.02;100.00
24306;BME280;12423;48.768;8.850;2023-10-19T12:45:22;94994.06;;;15.08;100.00
24306;BME280;12423;48.768;8.850;2023-10-19T12:47:49;94981.00;;;15.11;100.00
24306;BME280;12423;48.768;8.850;2023-10-19T12:50:18;94986.00;;;15.08;100.00
24306;BME280;12423;48.768;8.850;2023-10-19T12:52:48;94979.75;;;15.07;100.00
24306;BME280;12423;48.768;8.850;2023-10-19T12:55:17;94982.66;;;15.06;100.00
24306;BME280;12423;48.768;8.850;2023-10-19T12:57:44;94978.34;;;15.05;100.00
24306;BME280;12423;48.768;8.850;2023-10-19T13:00:14;94975.66;;;15.05;100.00
24306;BME280;12423;48.768;8.850;2023-10-19T13:02:52;94979.78;;;15.01;100.00
24306;BME280;12423;48.768;8.850;2023-10-19T13:05:26;94981.44;;;15.02;100.00
24306;BME280;12423;48.768;8.850;2023-10-19T13:07:54;94982.88;;;15.04;100.00
24306;BME280;12423;48.768;8.850;2023-10-19T13:10:27;94980.38;;;15.03;100.00